首页
METAR-TAF:

METAR-TAF

机场 :

Elkins-Randolph County Airport (Jennings Randolph Field)

Elkins, 西維吉尼亞州, 美国

纬度: 38-53-07N, 经度: 079-51-10W, 海拔: 605米

当前天气观测

该预报发布于34分钟前的07:51 UTC
静风
温度 4°C
湿度 75%
气压 1015 hPa
能見度: 16.1公里
散云层高于3800英尺
多云层高于4600英尺

METAR: KEKN 310751Z AUTO 00000KT 10SM SCT038 BKN046 04/00 A2997 RMK AO2 SLP155 T00390000

时间: 04:25 (08:25 UTC)

预报

该预报发布于2小时和47分钟前的05:38 UTC
预报有效从31日的 06点(UTC)到 01日的 06点(UTC)
风速3节,风向多变
能見度: 10公里
多云层高于3500英尺
从 31日的 2100点(UTC)
风速3节,风向多变
能見度: 10公里
阴天层高于3500英尺
小雨
从 31日的 2200点(UTC)
风速节,风向
能見度: 10公里
阴天层高于2500英尺
小雨
从 01日的 0000点(UTC)
风速节,风向
能見度: 9.7公里
阴天层高于1500英尺
小雨
从 01日的 0100点(UTC)
风速节,风向
能見度: 9.7公里
阴天层高于1500英尺
小阵雨
从 01日的 0400点(UTC)
风速节,风向
能見度: 9.7公里
阴天层高于1000英尺
轻雾

TAF: KEKN 310538Z 3106/0106 VRB03KT P6SM BKN035 FM312100 VRB03KT P6SM -RA OVC035 FM312200 00000KT P6SM -RA OVC025 FM010000 00000KT 6SM -RA OVC015 FM010100 00000KT 6SM -SHRA OVC015 FM010400 00000KT 6SM BR OVC010

超过4000个机场的气象观测和天气预报(METAR&TAF报告)。

可查询的气象台以黄色和红色小点在地图上表示。

将鼠标移到小点上方,可查看气象台名称。

然后点击查看天气观测和预报。

如需切换地图:点击带黑十字的绿色按钮放大地图;点击带横线的绿色按钮缩小地图;或者点击绿色箭头查看邻近地区的地图。


METAR-TAF: